createdAt,value
2019-03-20T00:01:23.569Z,4.30
2019-03-20T00:03:53.946Z,4.30
2019-03-20T00:06:23.533Z,4.30
2019-03-20T00:08:53.829Z,4.30
2019-03-20T00:11:24.146Z,4.30
2019-03-20T00:14:05.338Z,4.30
2019-03-20T00:16:37.836Z,4.30
2019-03-20T00:19:11.979Z,4.30
2019-03-20T00:21:42.480Z,4.30
2019-03-20T00:24:14.801Z,4.20
2019-03-20T00:26:48.112Z,4.20
2019-03-20T00:29:17.849Z,4.20
2019-03-20T00:31:47.141Z,4.20
2019-03-20T00:37:50.497Z,4.20
2019-03-20T00:40:19.993Z,4.20
2019-03-20T00:42:50.005Z,4.20
2019-03-20T00:45:50.023Z,4.20
2019-03-20T00:48:19.405Z,4.20
2019-03-20T00:50:48.818Z,4.20
2019-03-20T00:53:20.530Z,4.20
2019-03-20T00:55:53.913Z,4.20
2019-03-20T00:58:23.792Z,4.20
2019-03-20T01:00:55.643Z,4.20
2019-03-20T01:03:56.274Z,4.20
2019-03-20T01:06:26.989Z,4.20
2019-03-20T01:09:01.121Z,4.20
2019-03-20T01:11:31.596Z,4.20
2019-03-20T01:17:44.866Z,4.10
2019-03-20T01:20:15.725Z,4.00
2019-03-20T01:22:45.352Z,4.00
2019-03-20T01:25:15.562Z,4.00
2019-03-20T01:27:44.769Z,3.90
2019-03-20T01:30:33.829Z,3.90
2019-03-20T01:33:05.916Z,3.90
2019-03-20T01:35:37.813Z,3.90
2019-03-20T01:38:07.605Z,3.90
2019-03-20T01:40:36.891Z,3.90
2019-03-20T01:43:06.669Z,4.00
2019-03-20T01:45:52.269Z,4.00
2019-03-20T01:48:31.406Z,4.10
2019-03-20T01:51:20.855Z,4.10
2019-03-20T01:53:52.021Z,4.20
2019-03-20T01:56:21.955Z,4.20
2019-03-20T01:58:51.790Z,4.20
2019-03-20T02:01:20.713Z,4.20
2019-03-20T02:03:50.362Z,4.20
2019-03-20T02:06:21.085Z,4.20
2019-03-20T02:08:51.450Z,4.20
2019-03-20T02:11:21.571Z,4.20
2019-03-20T02:13:51.464Z,4.20
2019-03-20T02:16:20.803Z,4.10
2019-03-20T02:18:49.741Z,4.10
2019-03-20T02:21:18.688Z,4.10
2019-03-20T02:23:47.775Z,4.00
2019-03-20T02:26:19.717Z,4.00
2019-03-20T02:28:50.238Z,4.00
2019-03-20T02:31:19.146Z,3.90
2019-03-20T02:33:49.907Z,3.90
2019-03-20T02:36:21.809Z,3.80
2019-03-20T02:38:51.191Z,3.80
2019-03-20T02:41:30.843Z,3.80
2019-03-20T02:44:00.485Z,3.80
2019-03-20T02:46:30.393Z,3.80
2019-03-20T02:49:01.203Z,3.80
2019-03-20T02:51:30.169Z,3.90
2019-03-20T02:53:59.451Z,3.90
2019-03-20T02:56:28.457Z,3.90
2019-03-20T02:58:58.061Z,3.90
2019-03-20T03:01:28.566Z,3.90
2019-03-20T03:03:58.478Z,3.90
2019-03-20T03:06:29.718Z,4.00
2019-03-20T03:09:01.395Z,4.00
2019-03-20T03:11:31.126Z,4.10
2019-03-20T03:14:16.814Z,4.10
2019-03-20T03:16:46.570Z,4.20
2019-03-20T03:19:18.675Z,4.20
2019-03-20T03:21:56.146Z,4.20
2019-03-20T03:24:25.496Z,4.30
2019-03-20T03:26:55.761Z,4.30
2019-03-20T03:29:32.545Z,4.30
2019-03-20T03:32:02.473Z,4.30
2019-03-20T03:34:32.832Z,4.30
2019-03-20T03:37:03.403Z,4.30
2019-03-20T03:39:32.460Z,4.30
2019-03-20T03:42:01.806Z,4.30
2019-03-20T03:44:32.014Z,4.30
2019-03-20T03:47:04.253Z,4.40
2019-03-20T03:49:36.269Z,4.40
2019-03-20T03:52:06.208Z,4.50
2019-03-20T03:54:35.234Z,4.60
2019-03-20T03:57:07.244Z,4.50
2019-03-20T03:59:37.256Z,4.50
2019-03-20T04:02:07.158Z,4.50
2019-03-20T04:04:36.726Z,4.50
2019-03-20T04:07:05.697Z,4.50
2019-03-20T04:09:35.559Z,4.50
2019-03-20T04:12:06.956Z,4.50
2019-03-20T04:14:42.287Z,4.50
2019-03-20T04:17:28.175Z,4.50
2019-03-20T04:19:58.213Z,4.50
2019-03-20T04:22:27.916Z,4.50
2019-03-20T04:24:57.143Z,4.50
2019-03-20T04:27:26.854Z,4.50
2019-03-20T04:29:56.981Z,4.40
2019-03-20T04:32:27.014Z,4.40
2019-03-20T04:34:59.370Z,4.40
2019-03-20T04:37:29.545Z,4.50
2019-03-20T04:40:04.743Z,4.50
2019-03-20T04:42:34.026Z,4.50
2019-03-20T04:45:06.733Z,4.60
2019-03-20T04:47:38.245Z,4.60
2019-03-20T04:50:12.875Z,4.70
2019-03-20T04:52:42.658Z,4.70
2019-03-20T04:55:42.350Z,4.70
2019-03-20T04:58:13.274Z,4.70
2019-03-20T05:00:42.698Z,4.70
2019-03-20T05:03:14.395Z,4.80
2019-03-20T05:05:44.352Z,4.90
2019-03-20T05:08:14.986Z,4.90
2019-03-20T05:10:45.195Z,4.90
2019-03-20T05:13:14.492Z,4.90
2019-03-20T05:15:44.045Z,5.00
2019-03-20T05:18:14.441Z,5.00
2019-03-20T05:20:47.499Z,5.00
2019-03-20T05:23:17.071Z,5.00
2019-03-20T05:25:47.904Z,5.10
2019-03-20T05:28:17.368Z,5.10
2019-03-20T05:30:48.376Z,5.20
2019-03-20T05:33:18.428Z,5.20
2019-03-20T05:35:47.882Z,5.20
2019-03-20T05:38:17.868Z,5.30
2019-03-20T05:40:49.554Z,5.30
2019-03-20T05:43:21.652Z,5.40
2019-03-20T05:45:53.740Z,5.40
2019-03-20T05:48:35.045Z,5.50
2019-03-20T05:51:31.276Z,5.50
2019-03-20T05:54:53.021Z,5.60
2019-03-20T05:57:25.087Z,5.70
2019-03-20T06:00:00.541Z,5.70
2019-03-20T06:02:31.607Z,5.80
2019-03-20T06:05:06.107Z,5.80
2019-03-20T06:07:43.997Z,5.80
2019-03-20T06:10:15.023Z,5.80
2019-03-20T06:12:45.977Z,5.90
2019-03-20T06:15:21.018Z,5.90
2019-03-20T06:17:54.715Z,5.90
2019-03-20T06:20:30.545Z,6.00
2019-03-20T06:23:04.776Z,6.00
2019-03-20T06:29:09.978Z,6.00
2019-03-20T06:31:52.297Z,6.00
2019-03-20T06:34:42.743Z,6.00
2019-03-20T06:37:15.893Z,6.10
2019-03-20T06:39:46.745Z,6.10
2019-03-20T06:42:19.152Z,6.10
2019-03-20T06:44:51.525Z,6.20
2019-03-20T06:47:29.214Z,6.30
2019-03-20T06:50:14.904Z,6.30
2019-03-20T06:53:18.351Z,6.40
2019-03-20T06:55:52.151Z,6.40
2019-03-20T06:58:32.605Z,6.40
2019-03-20T07:01:30.692Z,6.50
2019-03-20T07:04:41.498Z,6.40
2019-03-20T07:07:43.629Z,6.40
2019-03-20T07:10:43.465Z,6.40
2019-03-20T07:13:13.854Z,6.50
2019-03-20T07:19:13.064Z,6.50
2019-03-20T07:21:42.222Z,6.60
2019-03-20T07:24:26.864Z,6.60
2019-03-20T07:27:00.051Z,6.60
2019-03-20T07:29:29.158Z,6.60
2019-03-20T07:31:58.149Z,6.70
2019-03-20T07:34:40.107Z,6.70
2019-03-20T07:37:14.771Z,6.70
2019-03-20T07:39:47.664Z,6.70
2019-03-20T07:42:20.113Z,6.70
2019-03-20T07:44:55.009Z,6.70
2019-03-20T07:47:27.991Z,6.70
2019-03-20T07:49:58.269Z,6.70
2019-03-20T07:52:32.283Z,6.70
2019-03-20T07:55:07.861Z,6.70
2019-03-20T07:58:02.708Z,6.60
2019-03-20T08:00:33.842Z,6.60
2019-03-20T08:03:03.866Z,6.60
2019-03-20T08:05:35.446Z,6.60
2019-03-20T08:08:07.459Z,6.60
2019-03-20T08:10:38.520Z,6.60
2019-03-20T08:13:07.550Z,6.60
2019-03-20T08:16:06.379Z,6.60
2019-03-20T08:18:36.206Z,6.60
2019-03-20T08:21:07.597Z,6.70
2019-03-20T08:23:43.574Z,6.80
2019-03-20T08:26:53.111Z,6.90
2019-03-20T08:29:26.479Z,6.90
2019-03-20T08:32:00.570Z,6.90
2019-03-20T08:34:31.576Z,7.00
2019-03-20T08:37:03.983Z,7.00
2019-03-20T08:39:35.599Z,7.00
2019-03-20T08:42:10.389Z,7.00
2019-03-20T08:47:58.366Z,7.10
2019-03-20T08:50:46.227Z,7.10
2019-03-20T08:53:18.686Z,7.10
2019-03-20T08:55:50.522Z,7.10
2019-03-20T08:58:24.637Z,7.20
2019-03-20T09:00:54.983Z,7.20
2019-03-20T09:03:42.649Z,7.20
2019-03-20T09:06:21.543Z,7.20
2019-03-20T09:08:56.141Z,7.10
2019-03-20T09:11:28.183Z,7.10
2019-03-20T09:14:32.721Z,7.10
2019-03-20T09:17:02.965Z,7.20
2019-03-20T09:19:42.484Z,7.20
2019-03-20T09:22:30.624Z,7.20
2019-03-20T09:25:43.273Z,7.30
2019-03-20T09:28:13.930Z,7.30
2019-03-20T09:30:55.480Z,7.30
2019-03-20T09:33:26.506Z,7.40
2019-03-20T09:36:05.726Z,7.40
2019-03-20T09:38:44.779Z,7.40
2019-03-20T09:41:07.618Z,7.50
2019-03-20T09:43:44.219Z,7.50
2019-03-20T09:46:14.889Z,7.60
2019-03-20T09:48:45.354Z,7.50
2019-03-20T09:51:16.725Z,7.50
2019-03-20T09:53:46.566Z,7.50
2019-03-20T09:56:19.571Z,7.50
2019-03-20T09:59:10.340Z,7.40
2019-03-20T10:01:42.296Z,7.40
2019-03-20T10:04:12.744Z,7.50
2019-03-20T10:06:58.466Z,7.50
2019-03-20T10:09:43.674Z,7.50
2019-03-20T10:12:13.669Z,7.50
2019-03-20T10:14:43.464Z,7.50
2019-03-20T10:17:13.418Z,7.50
2019-03-20T10:19:45.133Z,7.60
2019-03-20T10:22:16.918Z,7.60
2019-03-20T10:25:03.941Z,7.70
2019-03-20T10:27:42.546Z,7.70
2019-03-20T10:30:15.897Z,7.70
2019-03-20T10:33:06.281Z,7.80
2019-03-20T10:35:50.475Z,7.80
2019-03-20T10:38:20.849Z,7.90
2019-03-20T10:40:51.771Z,7.90
2019-03-20T10:43:35.915Z,8.00
2019-03-20T10:46:21.897Z,8.00
2019-03-20T10:48:56.456Z,8.00
2019-03-20T10:51:44.889Z,8.00
2019-03-20T10:54:20.005Z,8.10
2019-03-20T10:57:10.640Z,8.10
2019-03-20T10:59:55.410Z,8.10
2019-03-20T11:02:30.892Z,8.10
2019-03-20T11:05:30.092Z,8.10
2019-03-20T11:08:02.247Z,8.10
2019-03-20T11:10:41.541Z,8.20
2019-03-20T11:16:44.307Z,8.20
2019-03-20T11:19:23.299Z,8.30
2019-03-20T11:22:19.056Z,8.30
2019-03-20T11:25:01.104Z,8.40
2019-03-20T11:40:53.234Z,8.60
2019-03-20T11:55:30.581Z,8.80
2019-03-20T11:59:03.846Z,8.90
2019-03-20T12:05:10.123Z,9.00
2019-03-20T12:07:51.411Z,9.00
2019-03-20T12:10:26.158Z,9.10
2019-03-20T12:13:23.269Z,9.10
2019-03-20T13:37:46.031Z,9.30
2019-03-20T13:45:25.432Z,9.40
2019-03-20T13:50:52.694Z,9.50
2019-03-20T13:53:57.991Z,9.50
2019-03-20T13:56:57.555Z,9.50
2019-03-20T14:06:46.206Z,9.40
2019-03-20T14:24:08.901Z,9.30
2019-03-20T14:27:12.129Z,9.30
2019-03-20T14:41:29.206Z,9.10
2019-03-20T14:48:08.803Z,9.10
2019-03-20T14:51:08.195Z,9.20
2019-03-20T15:01:13.086Z,9.20
2019-03-20T15:04:04.487Z,9.30
2019-03-20T15:06:36.362Z,9.20
2019-03-20T15:09:49.309Z,9.30
2019-03-20T15:12:47.790Z,9.30
2019-03-20T15:15:44.853Z,9.30
2019-03-20T15:18:43.104Z,9.20
2019-03-20T15:21:28.450Z,9.20
2019-03-20T15:24:44.196Z,9.20
2019-03-20T15:28:12.420Z,9.30
2019-03-20T15:31:39.949Z,9.30
2019-03-20T15:38:00.277Z,9.40
2019-03-20T15:47:12.630Z,9.70
2019-03-20T15:50:09.301Z,9.70
2019-03-20T15:53:17.442Z,9.80
2019-03-20T15:55:56.659Z,9.80
2019-03-20T15:59:23.993Z,9.70
2019-03-20T16:05:59.748Z,9.70
2019-03-20T16:08:46.259Z,9.70
2019-03-20T16:11:39.435Z,9.80
2019-03-20T16:14:35.291Z,9.80
2019-03-20T16:17:14.287Z,9.90
2019-03-20T16:19:47.774Z,9.90
2019-03-20T16:22:38.819Z,9.80
2019-03-20T16:25:21.282Z,9.70
2019-03-20T16:28:02.849Z,9.70
2019-03-20T16:30:36.082Z,9.50
2019-03-20T16:33:07.754Z,9.50
2019-03-20T16:35:48.456Z,9.40
2019-03-20T16:38:22.611Z,9.30
2019-03-20T16:40:53.725Z,9.30
2019-03-20T16:43:26.700Z,9.20
2019-03-20T16:46:12.002Z,9.10
2019-03-20T16:48:53.422Z,9.00
2019-03-20T16:51:26.986Z,8.90
2019-03-20T16:54:13.544Z,8.90
2019-03-20T16:56:44.384Z,8.80
2019-03-20T16:59:20.868Z,8.70
2019-03-20T17:01:50.461Z,8.60
2019-03-20T17:04:24.046Z,8.60
2019-03-20T17:06:58.105Z,8.50
2019-03-20T17:12:33.570Z,8.50
2019-03-20T17:15:33.898Z,8.50
2019-03-20T17:18:08.041Z,8.50
2019-03-20T17:20:51.458Z,8.50
2019-03-20T17:30:39.035Z,8.50
2019-03-20T17:33:42.799Z,8.60
2019-03-20T17:39:22.061Z,8.70
2019-03-20T17:41:55.600Z,8.70
2019-03-20T17:44:25.598Z,8.60
2019-03-20T17:46:57.828Z,8.60
2019-03-20T17:49:31.625Z,8.70
2019-03-20T17:52:02.521Z,8.70
2019-03-20T17:54:32.029Z,8.80
2019-03-20T17:57:01.098Z,8.80
2019-03-20T17:59:34.399Z,8.80
2019-03-20T18:02:05.705Z,8.90
2019-03-20T18:04:35.368Z,8.90
2019-03-20T18:07:05.859Z,8.80
2019-03-20T18:09:35.562Z,8.80
2019-03-20T18:12:24.498Z,8.80
2019-03-20T18:14:56.637Z,8.80
2019-03-20T18:17:27.714Z,8.70
2019-03-20T18:20:03.555Z,8.70
2019-03-20T18:22:32.791Z,8.70
2019-03-20T18:31:32.950Z,8.80
2019-03-20T18:34:11.185Z,8.80
2019-03-20T18:36:42.059Z,8.70
2019-03-20T18:39:14.509Z,8.70
2019-03-20T18:41:57.390Z,8.60
2019-03-20T18:44:20.034Z,8.60
2019-03-20T18:46:58.674Z,8.50
2019-03-20T18:49:29.109Z,8.40
2019-03-20T18:51:58.312Z,8.30
2019-03-20T18:54:31.023Z,8.20
2019-03-20T18:57:00.433Z,8.10
2019-03-20T18:59:30.779Z,8.10
2019-03-20T19:02:00.498Z,8.10
2019-03-20T19:04:30.621Z,8.00
2019-03-20T19:07:00.687Z,7.90
2019-03-20T19:09:30.127Z,7.90
2019-03-20T19:12:08.147Z,7.90
2019-03-20T19:14:32.269Z,7.80
2019-03-20T19:17:01.281Z,7.70
2019-03-20T19:19:30.360Z,7.70
2019-03-20T19:22:00.064Z,7.70
2019-03-20T19:24:39.238Z,7.70
2019-03-20T19:27:08.826Z,7.60
2019-03-20T19:29:38.518Z,7.60
2019-03-20T19:32:13.010Z,7.60
2019-03-20T19:34:50.691Z,7.50
2019-03-20T19:37:20.269Z,7.50
2019-03-20T19:39:52.472Z,7.50
2019-03-20T19:42:23.237Z,7.40
2019-03-20T19:44:55.939Z,7.50
2019-03-20T19:47:26.461Z,7.40
2019-03-20T19:49:55.477Z,7.40
2019-03-20T19:52:27.541Z,7.40
2019-03-20T19:54:59.559Z,7.40
2019-03-20T19:57:30.682Z,7.40
2019-03-20T20:00:04.497Z,7.40
2019-03-20T20:02:34.078Z,7.40
2019-03-20T20:05:15.016Z,7.30
2019-03-20T20:07:37.859Z,7.30
2019-03-20T20:10:10.939Z,7.30
2019-03-20T20:12:45.151Z,7.30
2019-03-20T20:15:25.335Z,7.30
2019-03-20T20:17:56.013Z,7.30
2019-03-20T20:20:25.154Z,7.30
2019-03-20T20:22:54.530Z,7.20
2019-03-20T20:25:24.210Z,7.20
2019-03-20T20:27:53.273Z,7.20
2019-03-20T20:30:23.140Z,7.20
2019-03-20T20:32:52.413Z,7.10
2019-03-20T20:35:26.039Z,7.10
2019-03-20T20:37:54.788Z,7.10
2019-03-20T20:40:24.011Z,7.10
2019-03-20T20:42:53.226Z,7.10
2019-03-20T20:45:27.413Z,7.10
2019-03-20T20:47:58.153Z,7.10
2019-03-20T20:50:29.138Z,7.00
2019-03-20T20:53:03.017Z,7.00
2019-03-20T20:55:32.362Z,7.00
2019-03-20T20:58:02.215Z,7.10
2019-03-20T21:00:32.433Z,7.00
2019-03-20T21:03:02.373Z,7.10
2019-03-20T21:05:38.758Z,7.00
2019-03-20T21:08:13.340Z,7.00
2019-03-20T21:10:43.328Z,7.00
2019-03-20T21:13:24.303Z,7.00
2019-03-20T21:16:11.934Z,6.90
2019-03-20T21:19:19.926Z,6.90
2019-03-20T21:22:43.930Z,6.90
2019-03-20T21:25:26.014Z,6.90
2019-03-20T21:28:57.559Z,6.90
2019-03-20T21:31:49.518Z,6.90
2019-03-20T21:35:23.745Z,6.80
2019-03-20T21:38:12.935Z,6.80
2019-03-20T21:41:33.621Z,6.80
2019-03-20T21:44:42.632Z,6.80
2019-03-20T21:47:38.597Z,6.80
2019-03-20T21:50:40.654Z,6.80
2019-03-20T21:53:12.317Z,6.80
2019-03-20T21:59:52.395Z,6.80
2019-03-20T22:02:42.761Z,6.80
2019-03-20T22:05:40.308Z,6.80
2019-03-20T22:08:17.547Z,6.90
2019-03-20T22:11:22.468Z,7.00
2019-03-20T22:14:02.310Z,7.00
2019-03-20T22:17:32.356Z,7.10
2019-03-20T22:20:56.289Z,7.10
2019-03-20T22:23:57.366Z,7.20
2019-03-20T22:27:02.078Z,7.30
2019-03-20T22:29:33.493Z,7.30
2019-03-20T22:32:53.315Z,7.20
2019-03-20T22:35:46.710Z,7.20
2019-03-20T22:38:37.779Z,7.20
2019-03-20T22:41:43.426Z,7.20
2019-03-20T22:44:14.284Z,7.20
2019-03-20T22:47:35.052Z,7.30
2019-03-20T22:50:33.500Z,7.30
2019-03-20T22:53:38.109Z,7.30
2019-03-20T22:57:45.222Z,7.40
2019-03-20T22:59:47.374Z,7.40
2019-03-20T23:03:08.632Z,7.50
2019-03-20T23:05:46.515Z,7.50
2019-03-20T23:08:16.270Z,7.50
2019-03-20T23:10:47.678Z,7.50
2019-03-20T23:13:19.149Z,7.50
2019-03-20T23:15:52.771Z,7.50
2019-03-20T23:18:25.186Z,7.60
2019-03-20T23:20:56.360Z,7.60
2019-03-20T23:23:26.152Z,7.60
2019-03-20T23:25:56.731Z,7.60
2019-03-20T23:28:26.946Z,7.60
2019-03-20T23:31:41.036Z,7.60
2019-03-20T23:34:15.806Z,7.60
2019-03-20T23:36:54.697Z,7.60
2019-03-20T23:51:01.722Z,7.70
2019-03-20T23:53:45.634Z,7.70
2019-03-20T23:56:19.995Z,7.70
2019-03-20T23:58:54.228Z,7.70
